Cleveland, OH (44101)

1:26 AM EST on February 09, 2016 (GMT -0500)
APRSWXNET | | Change Station
CLOSE
Current Station
Personal Weather Station
Location: Cleveland, OH
Elevation: 690 ft
Nearby Weather Stations

Elev 690 ft 41.47 °N, 81.65 °W | Updated 38 minutes ago

Light Snow
Light Snow Mist
32 °F
Feels Like 32 °F
N
0
Wind Variable Wind from WSW
Gusts 0.0 mph

Today
High -- | Low -- °F
--% Chance of Precip.
Yesterday
High -- | Low -- °F
Precip. -- in
Pressure 29.59 in
Visibility 3.0 miles
Clouds Overcast 600 ft
Windchill 32 °F
Dew Point 27 °F
Humidity 82%
Rainfall in
Snow Depth Not available.
7:30 AM 5:52 PM
New Moon, 1% visible
METAR KBKL 090553Z 24007KT 3SM -SN BR OVC006 01/00 A2957 RMK AO2 SLP019 P0001 60007 T00110000 10011 20006 56004
Pressure 29.59 in
Visibility 3.0 miles
Clouds Overcast 600 ft
Windchill 32 °F
Dew Point 27 °F
Humidity 82%
Rainfall in
Snow Depth Not available.
7:30 AM 5:52 PM
New Moon, 1% visible
METAR KBKL 090553Z 24007KT 3SM -SN BR OVC006 01/00 A2957 RMK AO2 SLP019 P0001 60007 T00110000 10011 20006 56004

10-Day Weather Forecast

Almanac

Astronomy

Feb. 09, 2016 Rise Set
Actual Time
Civil Twilight
Nautical Twilight
Astronomical Twilight
Moon
Length of Visible Light
Length of Day
Tomorrow will be .
, % of the Moon is Illuminated

Today's Extremes

State Highs State Lows

Community

WunderPhotos

Upload Photos

1,891,571 photos uploaded!

WunderBlog® & News

Nearby

Air Quality

  Air Quality AQ Index Pollutant
Not available.

Snow Depth

Station Depth Elevation

Earthquake Activity

City Distance Mag. Time & Date
Minimum magnitude displayed is 2.5.

Coastal Water Temperatures

Place Temperature

Stations

Nearby Weather Stations

Station Location Temp. Windchill Dew Point Humidity Wind Precip. Elev Updated Type
                   

Watches & Warnings

There are currently no watches in effect.